Time;durP1;ratioP1;P1;durP2;ratioP2;P2;SDS_P1;SDS_P2;PMS_P1;PMS_P2;Temp;Humidity;BMP_temperature;BMP_pressure;BME280_temperature;BME280_humidity;BME280_pressure;Samples;Min_cycle;Max_cycle;Signal;HPM_P1;HPM_P2
2022/10/19 00:00:12;;;;;;;;;8.75;7.75;;;;;29.73;100.00;101469.16;5122222;27;51181;-49
2022/10/19 00:02:56;;;;;;;;;10.00;7.50;;;;;29.71;100.00;101477.50;5121464;27;51526;-51
2022/10/19 00:05:41;;;;;;;;;7.00;6.50;;;;;29.71;100.00;101473.88;5121218;27;51165;-50
2022/10/19 00:08:26;;;;;;;;;5.00;5.00;;;;;29.70;100.00;101456.53;5123152;27;51436;-53
2022/10/19 00:11:11;;;;;;;;;7.00;6.00;;;;;29.69;100.00;101452.06;5121245;27;51140;-49
2022/10/19 00:13:57;;;;;;;;;7.25;5.00;;;;;29.69;100.00;101446.56;5120362;27;51839;-49
2022/10/19 00:16:43;;;;;;;;;9.00;5.75;;;;;29.69;100.00;101438.34;5122065;27;51165;-48
2022/10/19 00:19:28;;;;;;;;;5.75;5.00;;;;;29.71;100.00;101432.72;5119660;27;51118;-50
2022/10/19 00:22:12;;;;;;;;;8.00;6.00;;;;;29.66;100.00;101433.06;5122321;27;51257;-52
2022/10/19 00:24:57;;;;;;;;;5.75;5.75;;;;;29.63;100.00;101430.56;5122593;27;51276;-55
2022/10/19 00:27:41;;;;;;;;;6.00;6.00;;;;;29.62;100.00;101437.03;5121072;27;51412;-57
2022/10/19 00:30:26;;;;;;;;;8.75;5.75;;;;;29.60;100.00;101437.13;5120920;27;51262;-52
2022/10/19 00:33:10;;;;;;;;;7.50;6.00;;;;;29.60;100.00;101423.44;5122403;27;51389;-55
2022/10/19 00:35:54;;;;;;;;;5.50;5.00;;;;;29.56;100.00;101432.88;5121735;27;51249;-52
2022/10/19 00:38:40;;;;;;;;;4.00;4.00;;;;;29.40;100.00;101407.56;5123283;27;51119;-53
2022/10/19 00:41:28;;;;;;;;;7.25;5.00;;;;;29.54;100.00;101432.13;5113878;27;51353;-50
2022/10/19 00:44:14;;;;;;;;;8.25;6.00;;;;;29.53;100.00;101424.88;5121073;27;51505;-58
2022/10/19 00:47:02;;;;;;;;;5.25;4.75;;;;;29.53;100.00;101427.63;5113878;27;52166;-50
2022/10/19 00:49:47;;;;;;;;;5.50;5.50;;;;;29.53;100.00;101431.22;5120141;27;51322;-52
2022/10/19 00:52:32;;;;;;;;;8.25;6.00;;;;;29.51;100.00;101427.75;5112268;27;51494;-51
2022/10/19 00:55:17;;;;;;;;;5.50;5.50;;;;;29.49;100.00;101435.19;5120819;27;51164;-56
2022/10/19 00:58:02;;;;;;;;;6.25;4.75;;;;;29.46;100.00;101431.81;5117778;27;51176;-51
2022/10/19 01:00:47;;;;;;;;;6.75;6.00;;;;;29.49;100.00;101426.97;5120828;27;51482;-56
2022/10/19 01:03:33;;;;;;;;;6.75;5.25;;;;;29.55;100.00;101427.50;5121875;27;51254;-52
2022/10/19 01:06:18;;;;;;;;;5.25;5.25;;;;;29.58;100.00;101424.53;5115754;27;51061;-50
2022/10/19 01:09:02;;;;;;;;;9.00;5.50;;;;;29.56;100.00;101419.19;5118641;27;51068;-56
2022/10/19 01:12:04;;;;;;;;;8.00;6.75;;;;;29.52;100.00;101417.66;5120061;27;51199;-52
2022/10/19 01:14:54;;;;;;;;;9.50;6.00;;;;;29.51;100.00;101410.41;5120758;27;51131;-55
2022/10/19 01:18:13;;;;;;;;;5.75;5.00;;;;;29.48;100.00;101413.34;5119606;27;51432;-53
2022/10/19 01:21:25;;;;;;;;;5.50;4.75;;;;;29.46;100.00;101408.00;5117449;27;51102;-53
2022/10/19 01:24:16;;;;;;;;;8.75;5.50;;;;;29.45;100.00;101409.00;5119030;27;51394;-57
2022/10/19 01:27:03;;;;;;;;;7.50;5.50;;;;;29.44;100.00;101403.63;5121282;27;51133;-54
2022/10/19 01:29:57;;;;;;;;;4.50;4.50;;;;;29.44;100.00;101401.75;5119613;27;51134;-56
2022/10/19 01:33:22;;;;;;;;;6.00;5.50;;;;;29.45;100.00;101391.69;5119199;27;51279;-53
2022/10/19 01:36:45;;;;;;;;;10.75;6.50;;;;;29.43;100.00;101375.31;5119949;27;51200;-50
2022/10/19 01:39:42;;;;;;;;;8.00;6.25;;;;;29.46;100.00;101372.34;5116188;27;51089;-52
2022/10/19 01:42:45;;;;;;;;;6.50;6.50;;;;;29.46;100.00;101377.84;5121204;27;51139;-54
2022/10/19 01:45:39;;;;;;;;;5.50;5.50;;;;;29.49;100.00;101365.75;5116028;27;51443;-53
2022/10/19 01:48:29;;;;;;;;;10.75;7.75;;;;;29.45;100.00;101367.88;5119564;27;51121;-52
2022/10/19 01:51:25;;;;;;;;;11.50;8.00;;;;;29.40;100.00;101359.13;5118833;27;51559;-55
2022/10/19 01:54:13;;;;;;;;;7.00;6.00;;;;;29.39;100.00;101351.88;5116705;27;51251;-54
2022/10/19 01:57:01;;;;;;;;;6.50;6.00;;;;;29.41;100.00;101349.91;5119303;27;51208;-53
2022/10/19 01:59:47;;;;;;;;;11.00;8.00;;;;;29.40;100.00;101344.53;5116927;27;51156;-53
2022/10/19 02:02:31;;;;;;;;;9.00;6.75;;;;;29.41;100.00;101338.06;5116106;27;51361;-52
2022/10/19 02:05:18;;;;;;;;;11.50;8.25;;;;;29.39;100.00;101332.69;5119878;27;51224;-50
2022/10/19 02:08:11;;;;;;;;;7.50;7.50;;;;;29.32;100.00;101317.63;5120399;27;51149;-53
2022/10/19 02:10:57;;;;;;;;;10.00;9.00;;;;;29.34;100.00;101318.44;5119152;27;51426;-51
2022/10/19 02:13:43;;;;;;;;;11.00;8.00;;;;;29.32;100.00;101317.63;5113887;27;51212;-51
2022/10/19 02:16:36;;;;;;;;;8.25;8.25;;;;;29.25;100.00;101327.31;5119216;27;51150;-58
2022/10/19 02:19:21;;;;;;;;;7.00;6.50;;;;;29.31;100.00;101332.38;5117551;27;51292;-56
2022/10/19 02:22:06;;;;;;;;;13.50;7.25;;;;;29.29;100.00;101323.38;5117686;27;51418;-52
2022/10/19 02:24:51;;;;;;;;;8.25;8.25;;;;;29.31;100.00;101326.88;5119971;27;51053;-57
2022/10/19 02:27:39;;;;;;;;;11.00;9.75;;;;;29.30;100.00;101322.38;5118947;27;51693;-54
2022/10/19 02:30:23;;;;;;;;;9.00;8.00;;;;;29.30;100.00;101330.59;5118795;27;51220;-51
2022/10/19 02:33:08;;;;;;;;;7.00;7.00;;;;;29.24;100.00;101320.97;5120175;27;51110;-53
2022/10/19 02:35:52;;;;;;;;;8.00;6.75;;;;;29.28;100.00;101330.69;5115997;27;51288;-50
2022/10/19 02:38:37;;;;;;;;;8.00;6.25;;;;;29.29;100.00;101339.81;5119783;27;51217;-51
2022/10/19 02:41:30;;;;;;;;;8.00;6.75;;;;;29.31;100.00;101333.22;5112683;27;51108;-57
2022/10/19 02:44:19;;;;;;;;;5.25;3.00;;;;;29.29;100.00;101331.59;5118731;27;51187;-53
2022/10/19 02:47:13;;;;;;;;;8.00;6.00;;;;;29.35;100.00;101325.69;5117116;27;51137;-51
2022/10/19 02:49:58;;;;;;;;;12.75;10.00;;;;;29.36;100.00;101338.41;5118142;27;51235;-48
2022/10/19 02:52:42;;;;;;;;;15.25;14.25;;;;;29.39;100.00;101335.44;5118727;27;51287;-51
2022/10/19 02:55:29;;;;;;;;;14.75;9.75;;;;;29.40;100.00;101339.94;5115720;27;51495;-53
2022/10/19 02:58:13;;;;;;;;;13.00;9.00;;;;;29.38;100.00;101342.78;5117891;27;51054;-52
2022/10/19 03:00:58;;;;;;;;;7.75;7.25;;;;;29.38;100.00;101342.78;5117913;27;51185;-55
2022/10/19 03:03:43;;;;;;;;;10.50;8.00;;;;;29.38;100.00;101353.72;5119964;27;51172;-54
2022/10/19 03:06:27;;;;;;;;;13.00;9.25;;;;;29.42;100.00;101348.03;5119779;27;51163;-49
2022/10/19 03:09:11;;;;;;;;;9.00;7.25;;;;;29.40;100.00;101339.94;5118082;27;51115;-56
2022/10/19 03:11:56;;;;;;;;;7.75;7.00;;;;;29.40;100.00;101330.81;5118571;27;51453;-56
2022/10/19 03:14:41;;;;;;;;;10.25;6.25;;;;;29.38;100.00;101334.53;5118991;27;51185;-54
2022/10/19 03:17:26;;;;;;;;;8.25;7.00;;;;;29.36;100.00;101321.94;5120892;27;51368;-50
2022/10/19 03:20:10;;;;;;;;;9.00;7.00;;;;;29.38;100.00;101319.97;5119591;27;51146;-56
2022/10/19 03:22:55;;;;;;;;;9.00;7.00;;;;;29.37;100.00;101327.31;5120705;27;51107;-51
2022/10/19 03:25:40;;;;;;;;;10.75;7.50;;;;;29.34;100.00;101326.66;5118247;27;51079;-51
2022/10/19 03:28:24;;;;;;;;;8.00;8.00;;;;;29.32;100.00;101331.34;5120485;27;51522;-53
2022/10/19 03:31:09;;;;;;;;;9.00;7.50;;;;;29.27;100.00;101323.47;5123523;27;51231;-49
2022/10/19 03:33:53;;;;;;;;;11.50;9.25;;;;;29.29;100.00;101332.47;5124845;27;51150;-55
2022/10/19 03:36:39;;;;;;;;;8.00;8.00;;;;;29.29;100.00;101329.72;5124351;27;51209;-53
2022/10/19 03:39:24;;;;;;;;;9.50;9.50;;;;;29.31;100.00;101326.88;5124144;27;51012;-52
2022/10/19 03:42:08;;;;;;;;;9.50;7.50;;;;;29.31;100.00;101329.63;5124155;27;51561;-53
2022/10/19 03:44:53;;;;;;;;;14.75;10.75;;;;;29.30;100.00;101325.13;5123992;27;51185;-52
2022/10/19 03:47:37;;;;;;;;;9.75;9.50;;;;;29.28;100.00;101318.88;5124591;27;51225;-56
2022/10/19 03:50:22;;;;;;;;;14.00;8.50;;;;;29.26;100.00;101327.19;5123684;27;51117;-51
2022/10/19 03:53:07;;;;;;;;;12.25;9.50;;;;;29.28;100.00;101327.09;5112708;27;51337;-52
2022/10/19 03:55:51;;;;;;;;;9.00;9.00;;;;;29.21;100.00;101310.22;5122283;27;51364;-54
2022/10/19 03:58:37;;;;;;;;;11.25;9.00;;;;;29.21;100.00;101307.50;5121124;27;51403;-56
2022/10/19 04:01:25;;;;;;;;;11.00;8.75;;;;;29.20;100.00;101309.38;5123148;27;51591;-50
2022/10/19 04:04:14;;;;;;;;;14.25;9.75;;;;;29.18;100.00;101311.34;5122733;27;51183;-51
2022/10/19 04:06:59;;;;;;;;;11.00;11.00;;;;;29.16;100.00;101310.56;5122329;27;52596;-52
2022/10/19 04:09:44;;;;;;;;;10.50;8.00;;;;;29.17;100.00;101317.81;5123116;27;51149;-52
2022/10/19 04:12:29;;;;;;;;;8.50;7.00;;;;;29.16;100.00;101306.94;5122581;27;51011;-54
2022/10/19 04:15:13;;;;;;;;;11.25;9.75;;;;;29.16;100.00;101316.06;5120213;27;51309;-54
2022/10/19 04:17:58;;;;;;;;;8.00;7.00;;;;;29.15;100.00;101311.56;5120949;27;51328;-54
2022/10/19 04:20:42;;;;;;;;;12.00;8.50;;;;;29.13;100.00;101312.66;5122365;27;51139;-48
2022/10/19 04:23:31;;;;;;;;;8.00;6.25;;;;;29.15;100.00;101316.19;5123117;27;51106;-53
2022/10/19 04:26:16;;;;;;;;;12.00;9.75;;;;;29.15;100.00;101310.69;5122897;27;51541;-58
2022/10/19 04:29:01;;;;;;;;;9.50;8.25;;;;;29.15;100.00;101314.28;5122875;27;51109;-51
2022/10/19 04:31:48;;;;;;;;;9.00;7.75;;;;;29.16;100.00;101317.91;5121736;27;51425;-51
2022/10/19 04:34:33;;;;;;;;;11.50;9.00;;;;;29.16;100.00;101320.63;5122205;27;51182;-50
2022/10/19 04:37:18;;;;;;;;;6.75;6.75;;;;;29.17;100.00;101327.88;5122620;27;51211;-48
2022/10/19 04:40:04;;;;;;;;;10.75;10.00;;;;;29.17;100.00;101322.41;5121565;27;51123;-55
2022/10/19 04:42:49;;;;;;;;;11.00;8.50;;;;;29.17;100.00;101320.53;5120231;27;51539;-54
2022/10/19 04:45:34;;;;;;;;;11.00;10.75;;;;;29.12;100.00;101311.78;5121266;27;51264;-54
2022/10/19 04:48:18;;;;;;;;;9.00;9.00;;;;;29.17;100.00;101309.59;5122760;27;51136;-52
2022/10/19 04:51:04;;;;;;;;;11.25;9.25;;;;;29.17;100.00;101323.28;5118491;27;51403;-50
2022/10/19 04:53:48;;;;;;;;;15.00;11.25;;;;;29.17;100.00;101323.28;5112131;27;51493;-53
2022/10/19 04:56:33;;;;;;;;;12.75;11.25;;;;;29.16;100.00;101321.53;5119621;27;51245;-56
2022/10/19 04:59:17;;;;;;;;;17.50;13.50;;;;;29.14;100.00;101320.75;5118943;27;51266;-51
2022/10/19 05:02:02;;;;;;;;;17.75;15.00;;;;;29.16;100.00;101320.63;5118216;27;51271;-56
2022/10/19 05:04:47;;;;;;;;;18.25;16.00;;;;;29.19;100.00;101326.78;5121453;27;51386;-57
2022/10/19 05:07:32;;;;;;;;;19.75;17.00;;;;;29.18;100.00;101330.53;5121956;27;51190;-54
2022/10/19 05:10:17;;;;;;;;;19.25;18.75;;;;;29.19;100.00;101331.38;5120660;27;51058;-57
2022/10/19 05:13:02;;;;;;;;;23.50;18.50;;;;;29.14;100.00;101328.97;5119315;27;51074;-49
2022/10/19 05:16:00;;;;;;;;;21.50;18.25;;;;;29.17;100.00;101327.88;5121258;27;51560;-52
2022/10/19 05:18:48;;;;;;;;;19.50;15.75;;;;;29.16;100.00;101326.13;5121817;27;51136;-52
2022/10/19 05:21:33;;;;;;;;;17.00;14.50;;;;;29.15;100.00;101327.13;5119881;27;50993;-50
2022/10/19 05:24:18;;;;;;;;;17.50;16.75;;;;;29.13;100.00;101329.97;5120472;27;51163;-51
2022/10/19 05:27:02;;;;;;;;;22.75;21.25;;;;;29.15;100.00;101328.00;5121861;27;51185;-57
2022/10/19 05:29:46;;;;;;;;;21.00;19.50;;;;;29.16;100.00;101328.84;5121889;27;51049;-55
2022/10/19 05:32:31;;;;;;;;;29.25;21.50;;;;;29.17;100.00;101334.25;5122122;27;51272;-51
2022/10/19 05:35:16;;;;;;;;;38.00;28.50;;;;;29.18;100.00;101355.19;5121058;27;51177;-51
2022/10/19 05:38:00;;;;;;;;;24.25;20.50;;;;;29.18;100.00;101352.44;5115433;27;51242;-59
2022/10/19 05:40:45;;;;;;;;;28.75;23.75;;;;;29.21;100.00;101348.59;5119783;27;51479;-52
2022/10/19 05:43:30;;;;;;;;;28.75;22.25;;;;;29.24;100.00;101359.34;5116617;27;51388;-54
2022/10/19 05:46:18;;;;;;;;;28.75;22.75;;;;;29.28;100.00;101366.31;5120585;27;51460;-56
2022/10/19 05:49:03;;;;;;;;;23.25;22.25;;;;;29.28;100.00;101369.06;5120883;27;51207;-55
2022/10/19 05:51:48;;;;;;;;;34.50;29.75;;;;;29.27;100.00;101370.06;5118007;27;51099;-40
2022/10/19 05:54:32;;;;;;;;;33.00;25.50;;;;;29.35;100.00;101380.50;5117743;27;51177;-43
2022/10/19 05:57:17;;;;;;;;;30.50;26.00;;;;;29.43;100.00;101379.94;5117162;27;51090;-41
2022/10/19 06:00:03;;;;;;;;;29.25;27.50;;;;;29.51;100.00;101375.66;5120806;27;51210;-42
2022/10/19 06:02:48;;;;;;;;;48.75;35.50;;;;;29.53;100.00;101365.41;5120848;27;51032;-41
2022/10/19 06:05:35;;;;;;;;;40.50;32.50;;;;;29.62;100.00;101385.81;5121158;27;51176;-42
2022/10/19 06:08:22;;;;;;;;;40.00;33.75;;;;;29.69;100.00;101388.97;5120097;27;51147;-45
2022/10/19 06:11:08;;;;;;;;;36.00;31.25;;;;;29.79;100.00;101390.03;5120845;27;51603;-45
2022/10/19 06:13:55;;;;;;;;;38.75;34.25;;;;;29.94;100.00;101390.78;5121136;27;51218;-42
2022/10/19 06:16:40;;;;;;;;;35.50;32.00;;;;;30.18;100.00;101394.50;5121390;27;51123;-44
2022/10/19 06:19:25;;;;;;;;;46.75;35.25;;;;;30.44;100.00;101393.38;5120637;27;51828;-46
2022/10/19 06:22:10;;;;;;;;;38.75;32.00;;;;;30.70;100.00;101387.72;5120765;27;51158;-44
2022/10/19 06:24:55;;;;;;;;;40.50;33.50;;;;;31.11;100.00;101390.03;5120551;27;51271;-47
2022/10/19 06:27:39;;;;;;;;;44.50;34.75;;;;;31.72;100.00;101394.31;5121336;27;51194;-42
2022/10/19 06:30:25;;;;;;;;;42.00;33.25;;;;;32.33;100.00;101406.66;5120342;27;51053;-45
2022/10/19 06:33:10;;;;;;;;;35.25;29.75;;;;;32.75;100.00;101410.28;5119455;27;51346;-45
2022/10/19 06:35:55;;;;;;;;;43.50;36.50;;;;;33.13;100.00;101410.69;5119262;27;51558;-43
2022/10/19 06:38:40;;;;;;;;;73.50;60.75;;;;;33.74;100.00;101413.56;5120026;27;51150;-42
2022/10/19 06:41:25;;;;;;;;;39.00;32.75;;;;;34.30;100.00;101401.00;5119803;27;51072;-46
2022/10/19 06:44:10;;;;;;;;;35.75;31.50;;;;;34.75;100.00;101405.09;5120483;27;51335;-42
2022/10/19 06:46:55;;;;;;;;;31.50;30.50;;;;;35.20;100.00;101398.84;5120661;27;51625;-46
2022/10/19 06:49:39;;;;;;;;;31.00;28.00;;;;;35.65;100.00;101394.47;5120058;27;51170;-43
2022/10/19 06:52:24;;;;;;;;;31.75;27.50;;;;;36.07;100.00;101390.25;5111387;27;51077;-47
2022/10/19 06:55:09;;;;;;;;;34.00;28.25;;;;;36.32;100.00;101389.59;5117337;27;51108;-47
2022/10/19 06:57:53;;;;;;;;;35.25;28.50;;;;;36.59;100.00;101395.09;5120246;27;51220;-47
2022/10/19 07:00:38;;;;;;;;;28.25;24.00;;;;;36.94;100.00;101388.75;5119993;27;51435;-40
2022/10/19 07:03:23;;;;;;;;;30.75;25.00;;;;;37.63;100.00;101399.88;5119920;27;51177;-46
2022/10/19 07:06:10;;;;;;;;;26.50;21.50;;;;;38.37;100.00;101393.63;5124361;27;51200;-48
2022/10/19 07:08:55;;;;;;;;;27.50;20.50;;;;;39.09;100.00;101392.88;5123849;27;51115;-43
2022/10/19 07:11:39;;;;;;;;;24.25;22.50;;;;;39.68;100.00;101391.59;5124530;27;51611;-43
2022/10/19 07:14:27;;;;;;;;;26.00;19.50;;;;;40.24;100.00;101396.16;5123152;27;51164;-46
2022/10/19 07:17:12;;;;;;;;;22.25;17.25;;;;;40.68;100.00;101391.78;5123831;27;51029;-46
2022/10/19 07:19:56;;;;;;;;;23.25;18.50;;;;;41.11;100.00;101396.75;5123030;27;51214;-44
2022/10/19 07:22:42;;;;;;;;;18.00;16.50;;;;;41.50;100.00;101404.81;5121292;27;51252;-46
2022/10/19 07:25:26;;;;;;;;;17.00;13.50;;;;;41.80;100.00;101413.13;5124304;27;51633;-47
2022/10/19 07:28:10;;;;;;;;;11.75;10.50;;;;;42.01;100.00;101413.41;5121856;27;51246;-44
2022/10/19 07:30:55;;;;;;;;;13.00;12.00;;;;;42.07;100.00;101418.19;5120609;27;51241;-43
2022/10/19 07:33:40;;;;;;;;;13.75;11.25;;;;;41.66;100.00;101419.63;5122175;27;50978;-46
2022/10/19 07:36:26;;;;;;;;;12.50;10.75;;;;;40.49;100.00;101427.47;5122140;27;51120;-46
2022/10/19 07:39:12;;;;;;;;;11.50;10.50;;;;;39.29;100.00;101428.66;5120615;27;51124;-47
2022/10/19 07:41:56;;;;;;;;;15.25;11.25;;;;;38.65;100.00;101444.19;5122840;27;51106;-45
2022/10/19 07:44:40;;;;;;;;;14.00;13.25;;;;;38.12;100.00;101450.00;5121740;27;51207;-46
2022/10/19 07:47:25;;;;;;;;;12.75;12.75;;;;;37.96;100.00;101463.88;5121360;27;51146;-45
2022/10/19 07:50:10;;;;;;;;;16.25;14.50;;;;;37.96;100.00;101452.75;5123338;27;51533;-46
2022/10/19 08:21:26;;;;;;;;;11.00;10.50;;;;;38.96;100.00;101487.13;4382368;32;51113;-43
2022/10/19 08:24:13;;;;;;;;;15.00;12.25;;;;;39.10;100.00;101478.09;5096480;27;51136;-44
2022/10/19 08:26:57;;;;;;;;;16.75;16.50;;;;;39.19;100.00;101492.81;5103399;27;51083;-45
2022/10/19 08:29:42;;;;;;;;;12.75;11.00;;;;;39.13;100.00;101482.41;5108047;27;51057;-46
2022/10/19 08:32:26;;;;;;;;;22.75;17.25;;;;;39.11;100.00;101495.63;5107686;27;51430;-46
2022/10/19 08:35:11;;;;;;;;;16.25;15.50;;;;;38.98;100.00;101499.81;5110987;27;51087;-43
2022/10/19 08:37:55;;;;;;;;;9.50;9.00;;;;;38.99;100.00;101500.69;5112913;27;51087;-47
2022/10/19 08:40:39;;;;;;;;;11.50;11.50;;;;;38.92;100.00;101503.31;5097076;27;51404;-43
2022/10/19 08:43:33;;;;;;;;;13.75;13.75;;;;;38.98;100.00;101504.53;5095567;27;51357;-44
2022/10/19 08:46:24;;;;;;;;;12.00;9.50;;;;;38.95;100.00;101521.56;5108951;27;51620;-43
2022/10/19 08:49:14;;;;;;;;;13.00;12.25;;;;;38.85;100.00;101522.59;5112652;27;51323;-44
2022/10/19 08:52:03;;;;;;;;;12.25;9.75;;;;;38.74;100.00;101515.44;5108620;27;51114;-43
2022/10/19 08:54:53;;;;;;;;;9.00;9.00;;;;;38.68;100.00;101512.50;5096624;27;51186;-42
2022/10/19 08:58:16;;;;;;;;;18.25;12.00;;;;;38.64;100.00;101499.97;5103098;27;51163;-43
2022/10/19 09:01:15;;;;;;;;;13.50;11.75;;;;;38.68;100.00;101502.22;5108911;27;51179;-43
2022/10/19 09:04:01;;;;;;;;;11.50;9.50;;;;;38.57;100.00;101506.22;5106998;27;51041;-45
2022/10/19 09:06:59;;;;;;;;;16.25;14.75;;;;;38.61;100.00;101501.19;5103944;27;51119;-45
2022/10/19 09:09:53;;;;;;;;;10.50;8.25;;;;;38.55;100.00;101501.88;5110007;27;51559;-43
2022/10/19 09:12:58;;;;;;;;;14.00;10.50;;;;;38.43;100.00;101501.34;5107488;27;51099;-45
2022/10/19 09:15:48;;;;;;;;;11.75;9.00;;;;;38.30;100.00;101499.03;5099712;27;51104;-44
2022/10/19 09:18:34;;;;;;;;;15.00;11.75;;;;;38.10;100.00;101507.66;5107207;27;51563;-45
2022/10/19 09:21:25;;;;;;;;;13.50;11.25;;;;;38.02;100.00;101502.06;5087817;27;51363;-44
2022/10/19 09:24:19;;;;;;;;;13.75;10.75;;;;;37.97;100.00;101498.94;5086920;27;51437;-46
2022/10/19 09:27:06;;;;;;;;;15.00;11.00;;;;;37.83;100.00;101498.50;5102853;27;51114;-43
2022/10/19 09:30:01;;;;;;;;;14.25;9.25;;;;;37.77;100.00;101495.53;5094294;27;51310;-46
2022/10/19 09:32:48;;;;;;;;;13.50;10.75;;;;;37.72;100.00;101496.03;5078330;27;51445;-45
2022/10/19 09:35:44;;;;;;;;;11.75;10.25;;;;;37.72;100.00;101492.41;5084225;27;51336;-45
2022/10/19 09:38:30;;;;;;;;;12.00;10.75;;;;;37.64;100.00;101480.19;5086008;27;51199;-46
2022/10/19 09:41:20;;;;;;;;;13.25;10.25;;;;;37.70;100.00;101486.13;5093684;27;51158;-44
2022/10/19 09:44:04;;;;;;;;;16.75;13.50;;;;;37.64;100.00;101473.78;5071660;27;51332;-44
2022/10/19 09:47:01;;;;;;;;;13.75;10.75;;;;;37.71;100.00;101477.63;5095456;27;51136;-43
2022/10/19 10:16:13;;;;;;;;;9.75;8.50;;;;;36.50;100.00;101443.16;4338027;32;51275;-40
2022/10/19 10:19:10;;;;;;;;;9.75;9.25;;;;;36.58;100.00;101453.44;5035695;28;51446;-45
2022/10/19 10:21:56;;;;;;;;;11.00;9.25;;;;;36.67;100.00;101455.25;5054545;28;51079;-48
2022/10/19 10:24:51;;;;;;;;;12.75;10.75;;;;;36.78;100.00;101459.69;5053845;28;51202;-44
2022/10/19 10:27:37;;;;;;;;;14.75;11.50;;;;;36.77;100.00;101449.63;5053241;28;51170;-43
2022/10/19 10:30:22;;;;;;;;;16.00;11.25;;;;;36.77;100.00;101457.94;5054112;28;51086;-46
2022/10/19 10:33:09;;;;;;;;;13.00;11.75;;;;;36.79;100.00;101449.44;5054896;28;51115;-44
2022/10/19 10:35:56;;;;;;;;;8.00;6.50;;;;;36.87;100.00;101449.53;5055267;28;51154;-45
2022/10/19 10:38:46;;;;;;;;;11.75;10.75;;;;;36.92;100.00;101447.16;5049413;28;51171;-43
2022/10/19 10:41:37;;;;;;;;;13.00;9.75;;;;;37.00;100.00;101449.13;5055851;28;51114;-46
2022/10/19 10:44:25;;;;;;;;;13.00;13.00;;;;;36.90;100.00;101429.78;5053259;28;51394;-47
2022/10/19 10:47:13;;;;;;;;;14.75;11.75;;;;;36.95;100.00;101437.63;5055139;28;51047;-45
2022/10/19 10:50:02;;;;;;;;;16.50;11.50;;;;;37.00;100.00;101436.09;5052513;28;51134;-43
2022/10/19 10:52:59;;;;;;;;;10.50;10.25;;;;;36.97;100.00;101438.34;5052693;28;51525;-48
2022/10/19 10:55:55;;;;;;;;;14.00;11.75;;;;;36.94;100.00;101427.56;5055959;28;51176;-49
2022/10/19 10:58:54;;;;;;;;;12.50;9.50;;;;;36.96;100.00;101423.63;5054818;28;51276;-50
2022/10/19 11:01:58;;;;;;;;;8.00;6.25;;;;;37.01;100.00;101429.53;5047751;28;51193;-46
2022/10/19 11:04:51;;;;;;;;;17.25;11.50;;;;;36.85;100.00;101405.31;5054585;28;51110;-43
2022/10/19 11:07:42;;;;;;;;;9.50;9.50;;;;;36.82;100.00;101411.19;5057476;27;51067;-45
2022/10/19 11:10:36;;;;;;;;;12.25;10.50;;;;;36.75;100.00;101410.09;5054465;28;51184;-46
2022/10/19 11:13:28;;;;;;;;;10.75;10.00;;;;;36.69;100.00;101417.16;5055081;28;51082;-49
2022/10/19 11:16:17;;;;;;;;;8.25;7.50;;;;;36.56;100.00;101412.03;5045701;28;51153;-48
2022/10/19 11:19:13;;;;;;;;;10.25;8.00;;;;;36.40;100.00;101389.69;5040731;28;51135;-47
2022/10/19 11:22:22;;;;;;;;;10.25;9.00;;;;;36.21;100.00;101399.91;5041347;28;51156;-45
2022/10/19 11:25:29;;;;;;;;;10.75;9.00;;;;;36.25;100.00;101390.25;5044544;28;51153;-44
2022/10/19 11:28:25;;;;;;;;;12.00;9.25;;;;;36.21;100.00;101386.06;5041168;28;51128;-44
2022/10/19 11:31:23;;;;;;;;;8.50;6.25;;;;;36.14;100.00;101373.88;5040483;28;51243;-49
2022/10/19 11:34:39;;;;;;;;;10.00;6.25;;;;;36.12;100.00;101374.06;5036408;28;51174;-47
2022/10/19 11:37:28;;;;;;;;;10.75;8.00;;;;;36.12;100.00;101370.41;5039951;28;50959;-42
2022/10/19 11:40:18;;;;;;;;;13.00;8.50;;;;;36.13;100.00;101374.91;5040422;28;51169;-44
2022/10/19 11:43:11;;;;;;;;;10.50;7.50;;;;;36.08;100.00;101375.38;5035918;28;51188;-46
2022/10/19 11:46:44;;;;;;;;;4.75;4.00;;;;;36.08;100.00;101375.38;5040905;28;51354;-46
2022/10/19 11:49:40;;;;;;;;;9.25;8.00;;;;;36.04;100.00;101364.78;5030394;28;51154;-48
2022/10/19 11:52:38;;;;;;;;;7.00;7.00;;;;;36.05;100.00;101356.31;5040285;28;51189;-46
2022/10/19 11:56:07;;;;;;;;;8.25;8.25;;;;;36.00;100.00;101350.38;5040138;28;51476;-46
2022/10/19 11:59:07;;;;;;;;;10.25;9.75;;;;;35.84;100.00;101338.06;4983304;28;51083;-43
2022/10/19 12:01:54;;;;;;;;;9.00;8.00;;;;;35.70;100.00;101326.69;4998598;28;51073;-42
2022/10/19 12:05:11;;;;;;;;;8.25;8.00;;;;;35.55;100.00;101320.81;5040125;28;51222;-49
2022/10/19 12:08:33;;;;;;;;;10.00;8.75;;;;;35.42;100.00;101310.13;5033407;28;51438;-47
2022/10/19 12:11:35;;;;;;;;;11.00;9.00;;;;;35.43;100.00;101303.56;5034545;28;51113;-46
2022/10/19 12:14:24;;;;;;;;;9.25;9.00;;;;;35.36;100.00;101300.53;5041233;28;51446;-47
2022/10/19 12:17:13;;;;;;;;;9.50;9.50;;;;;35.25;100.00;101282.22;5038290;28;51118;-45
2022/10/19 12:20:06;;;;;;;;;7.75;6.00;;;;;35.18;100.00;101292.19;5039412;28;51160;-43
2022/10/19 12:22:51;;;;;;;;;8.00;7.75;;;;;35.08;100.00;101289.47;5039333;28;51086;-44
2022/10/19 12:25:39;;;;;;;;;10.75;9.50;;;;;35.05;100.00;101287.00;5040370;28;51454;-42
2022/10/19 12:28:28;;;;;;;;;7.25;7.25;;;;;35.05;100.00;101289.78;5038300;28;51149;-49
2022/10/19 12:31:13;;;;;;;;;10.25;8.25;;;;;34.99;100.00;101282.97;5039590;28;51107;-45
2022/10/19 12:34:38;;;;;;;;;6.50;6.25;;;;;34.89;100.00;101284.88;5038782;28;51332;-46
2022/10/19 12:37:42;;;;;;;;;5.25;5.25;;;;;34.72;100.00;101278.25;5040686;28;51209;-46
2022/10/19 12:40:40;;;;;;;;;5.50;5.00;;;;;34.61;100.00;101290.34;5040566;28;51096;-45
2022/10/19 12:44:08;;;;;;;;;7.75;6.25;;;;;34.55;100.00;101285.44;5022769;28;51229;-49
2022/10/19 12:46:58;;;;;;;;;5.50;5.25;;;;;34.41;100.00;101273.81;5028213;28;51113;-52
2022/10/19 12:49:54;;;;;;;;;8.00;6.75;;;;;34.40;100.00;101271.22;5040377;28;51420;-46
2022/10/19 12:52:47;;;;;;;;;6.00;5.00;;;;;34.30;100.00;101263.81;5035495;28;51207;-48
2022/10/19 12:55:33;;;;;;;;;7.25;4.25;;;;;34.22;100.00;101265.56;5035799;28;51254;-48
2022/10/19 12:58:22;;;;;;;;;0.00;0.00;;;;;34.17;100.00;101249.44;5037664;28;51139;-45
2022/10/19 13:01:18;;;;;;;;;6.25;6.25;;;;;34.24;100.00;101247.81;5038767;28;51550;-44
2022/10/19 13:04:11;;;;;;;;;7.75;6.50;;;;;34.32;100.00;101237.94;5036707;28;51135;-48
2022/10/19 13:06:56;;;;;;;;;4.50;4.25;;;;;34.32;100.00;101236.03;5038852;28;51277;-45
2022/10/19 13:09:42;;;;;;;;;6.25;5.25;;;;;34.32;100.00;101224.13;5039749;28;51566;-47
2022/10/19 13:12:38;;;;;;;;;7.75;6.75;;;;;34.38;100.00;101224.41;5038263;28;51100;-43
2022/10/19 13:15:35;;;;;;;;;5.75;5.75;;;;;34.38;100.00;101220.75;5065583;27;51157;-46
2022/10/19 13:19:10;;;;;;;;;8.25;6.25;;;;;34.39;100.00;101216.97;5039979;28;51386;-45
2022/10/19 13:22:01;;;;;;;;;5.50;5.25;;;;;34.32;100.00;101213.94;5028623;28;51540;-42
2022/10/19 13:25:25;;;;;;;;;9.00;4.50;;;;;34.30;100.00;101211.31;5038698;28;51179;-48
2022/10/19 13:28:11;;;;;;;;;8.75;6.75;;;;;34.29;100.00;101206.81;5038552;28;51138;-49
2022/10/19 13:31:00;;;;;;;;;7.50;6.25;;;;;34.20;100.00;101204.06;5037732;28;51996;-47
2022/10/19 13:33:47;;;;;;;;;6.00;4.25;;;;;34.14;100.00;101202.78;5036261;28;51264;-43
2022/10/19 13:36:31;;;;;;;;;5.50;4.00;;;;;34.10;100.00;101188.41;5038247;28;51327;-42
2022/10/19 13:39:16;;;;;;;;;8.00;5.50;;;;;34.09;100.00;101191.31;5039496;28;51019;-46
2022/10/19 13:42:00;;;;;;;;;8.25;6.75;;;;;34.07;100.00;101179.56;5036111;28;51353;-44
2022/10/19 13:44:46;;;;;;;;;4.75;4.75;;;;;34.08;100.00;101179.41;5038022;28;51322;-44